Time;durP1;ratioP1;P1;durP2;ratioP2;P2;SDS_P1;SDS_P2;PMS_P1;PMS_P2;Temp;Humidity;BMP_temperature;BMP_pressure;BME280_temperature;BME280_humidity;BME280_pressure;Samples;Min_cycle;Max_cycle;Signal;HPM_P1;HPM_P2
2023/01/03 00:01:15;;;;;;;1.10;1.00;;;9.80;99.90;;;;;;4976582;28;20763;-73
2023/01/03 00:03:41;;;;;;;2.00;1.13;;;9.70;99.90;;;;;;4970953;28;20496;-73
2023/01/03 00:06:20;;;;;;;1.40;1.00;;;9.80;99.90;;;;;;4971829;28;20447;-73
2023/01/03 00:08:46;;;;;;;1.17;0.90;;;9.80;99.90;;;;;;4971819;28;20416;-72
2023/01/03 00:11:13;;;;;;;1.10;1.00;;;9.90;99.90;;;;;;4971765;28;20467;-73
2023/01/03 00:13:39;;;;;;;1.10;1.00;;;9.90;99.90;;;;;;4971027;28;20490;-73
2023/01/03 00:16:12;;;;;;;1.20;1.10;;;9.90;99.90;;;;;;4971562;28;20385;-73
2023/01/03 00:18:38;;;;;;;1.00;0.90;;;9.80;99.90;;;;;;4988711;28;20489;-73
2023/01/03 00:21:04;;;;;;;1.10;1.00;;;9.90;99.90;;;;;;4990935;28;20470;-73
2023/01/03 00:23:29;;;;;;;1.00;0.90;;;9.80;99.90;;;;;;4988532;28;20900;-73
2023/01/03 00:25:55;;;;;;;1.20;1.10;;;9.80;99.90;;;;;;4990614;28;20769;-73
2023/01/03 00:28:20;;;;;;;1.20;1.10;;;9.70;99.90;;;;;;4990986;28;20401;-72
2023/01/03 00:30:46;;;;;;;1.20;1.00;;;9.70;99.90;;;;;;4989575;28;20398;-73
2023/01/03 00:33:11;;;;;;;1.80;1.25;;;9.70;99.90;;;;;;4981839;28;20415;-73
2023/01/03 00:35:37;;;;;;;1.60;1.20;;;9.70;99.90;;;;;;4971416;28;20467;-73
2023/01/03 00:38:02;;;;;;;1.40;1.20;;;9.60;99.90;;;;;;4971259;28;20404;-72
2023/01/03 00:40:27;;;;;;;1.60;0.90;;;9.50;99.90;;;;;;4971544;28;20392;-73
2023/01/03 00:45:37;;;;;;;1.95;1.30;;;9.50;99.90;;;;;;4994716;28;20394;-73
2023/01/03 00:48:03;;;;;;;1.20;1.10;;;9.40;99.90;;;;;;4993180;28;20391;-72
2023/01/03 00:50:28;;;;;;;1.10;1.00;;;9.40;99.90;;;;;;4994570;28;20456;-72
2023/01/03 00:52:54;;;;;;;2.50;1.00;;;9.30;99.90;;;;;;4982321;28;20415;-73
2023/01/03 00:55:20;;;;;;;2.03;1.20;;;9.40;99.90;;;;;;4975144;28;20392;-73
2023/01/03 00:57:45;;;;;;;2.60;1.40;;;9.40;99.90;;;;;;4974753;28;20398;-72
2023/01/03 01:00:11;;;;;;;1.90;0.90;;;9.40;99.90;;;;;;4981610;28;20471;-72
2023/01/03 01:02:37;;;;;;;1.30;1.15;;;9.40;99.90;;;;;;4993610;28;21062;-73
2023/01/03 01:05:02;;;;;;;1.60;1.20;;;9.30;99.90;;;;;;4994142;28;20406;-73
2023/01/03 01:07:28;;;;;;;1.27;1.00;;;9.40;99.90;;;;;;4994111;28;20514;-72
2023/01/03 01:09:53;;;;;;;1.20;1.10;;;9.30;99.90;;;;;;4980060;28;20421;-73
2023/01/03 01:12:19;;;;;;;1.10;1.00;;;9.30;99.90;;;;;;4977586;28;20415;-73
2023/01/03 01:14:44;;;;;;;1.17;1.07;;;9.40;99.90;;;;;;4973959;28;20969;-73
2023/01/03 01:17:10;;;;;;;1.23;1.00;;;9.30;99.90;;;;;;4974449;28;20471;-73
2023/01/03 01:19:39;;;;;;;2.70;1.70;;;9.30;99.90;;;;;;5022099;23;20531;-72
2023/01/03 01:22:05;;;;;;;1.10;1.00;;;9.20;99.90;;;;;;5012107;28;20385;-72
2023/01/03 01:24:31;;;;;;;2.00;1.02;;;9.20;99.90;;;;;;4993200;28;20470;-73
2023/01/03 01:26:57;;;;;;;1.02;0.93;;;9.20;99.90;;;;;;4976371;28;20378;-73
2023/01/03 01:29:22;;;;;;;1.15;1.05;;;9.20;99.90;;;;;;4993796;28;20383;-72
2023/01/03 01:31:48;;;;;;;1.27;1.17;;;9.10;99.90;;;;;;4993895;28;20470;-73
2023/01/03 01:34:14;;;;;;;1.00;0.90;;;9.10;99.90;;;;;;4992576;28;20406;-72
2023/01/03 01:36:41;;;;;;;1.20;1.10;;;9.20;99.90;;;;;;4993743;28;20382;-72
2023/01/03 01:39:11;;;;;;;1.30;1.20;;;9.20;99.90;;;;;;4993849;28;20390;-73
2023/01/03 01:45:00;;;;;;;1.10;1.00;;;9.20;99.90;;;;;;4932510;29;20402;-73
2023/01/03 01:47:54;;;;;;;2.45;1.15;;;9.10;99.90;;;;;;4989824;28;20401;-72
2023/01/03 01:50:28;;;;;;;1.20;1.08;;;9.10;99.90;;;;;;4990966;28;20452;-72
2023/01/03 01:52:58;;;;;;;1.40;1.10;;;9.20;99.90;;;;;;4992332;28;20445;-72
2023/01/03 01:55:28;;;;;;;1.30;1.20;;;9.00;99.90;;;;;;4993445;28;20401;-72
2023/01/03 01:57:54;;;;;;;1.13;1.02;;;9.00;99.90;;;;;;4993256;28;20389;-72
2023/01/03 02:00:20;;;;;;;1.40;1.30;;;9.10;99.90;;;;;;4993356;28;20383;-73
2023/01/03 02:02:48;;;;;;;1.30;1.20;;;9.10;99.90;;;;;;4992574;28;20544;-72
2023/01/03 02:05:16;;;;;;;1.60;1.30;;;9.00;99.90;;;;;;4993383;28;20410;-72
2023/01/03 02:07:43;;;;;;;1.77;1.17;;;9.00;99.90;;;;;;4993026;28;20385;-72
2023/01/03 02:10:09;;;;;;;1.33;1.20;;;9.10;99.90;;;;;;4973680;28;20388;-72
2023/01/03 02:15:32;;;;;;;1.63;0.90;;;9.10;99.90;;;;;;4992868;28;20402;-73
2023/01/03 02:18:03;;;;;;;1.40;1.10;;;9.00;99.90;;;;;;4992662;28;20394;-72
2023/01/03 02:21:07;;;;;;;1.30;1.20;;;8.90;99.90;;;;;;4992340;28;20521;-73
2023/01/03 02:23:57;;;;;;;1.90;1.40;;;8.90;99.90;;;;;;4992147;28;20477;-72
2023/01/03 02:26:51;;;;;;;1.30;1.20;;;8.90;99.90;;;;;;4992578;28;20510;-73
2023/01/03 02:29:29;;;;;;;1.50;1.10;;;8.90;99.90;;;;;;4992686;28;20386;-72
2023/01/03 02:32:07;;;;;;;1.52;1.20;;;8.90;99.90;;;;;;4992219;28;20441;-73
2023/01/03 02:34:48;;;;;;;1.30;1.20;;;8.90;99.90;;;;;;4990469;28;20496;-72
2023/01/03 02:37:30;;;;;;;2.58;1.65;;;8.90;99.90;;;;;;4991324;28;20391;-72
2023/01/03 02:40:17;;;;;;;1.50;1.40;;;8.90;99.90;;;;;;5024219;28;20391;-72
2023/01/03 02:42:57;;;;;;;1.80;1.50;;;9.00;99.90;;;;;;4991220;28;20406;-72
2023/01/03 02:45:45;;;;;;;3.65;1.40;;;9.00;99.90;;;;;;4992379;28;20391;-72
2023/01/03 02:48:29;;;;;;;2.50;1.40;;;8.90;99.90;;;;;;4992348;28;20859;-72
2023/01/03 02:50:58;;;;;;;1.55;1.40;;;9.00;99.90;;;;;;4992505;28;20482;-73
2023/01/03 02:53:30;;;;;;;1.60;1.50;;;8.90;99.90;;;;;;4991268;28;20450;-72
2023/01/03 02:56:02;;;;;;;2.22;1.40;;;9.00;99.90;;;;;;4992143;28;20404;-73
2023/01/03 02:58:30;;;;;;;2.30;1.70;;;9.00;99.90;;;;;;4992402;28;20382;-72
2023/01/03 03:00:58;;;;;;;1.60;1.50;;;9.00;99.90;;;;;;4992220;28;20390;-73
2023/01/03 03:03:31;;;;;;;1.38;1.27;;;9.00;99.90;;;;;;4990967;28;20422;-72
2023/01/03 03:06:03;;;;;;;1.50;1.40;;;8.90;99.90;;;;;;4991551;28;20825;-73
2023/01/03 03:08:28;;;;;;;1.58;1.30;;;8.90;99.90;;;;;;4990551;28;20441;-72
2023/01/03 03:13:54;;;;;;;2.10;1.52;;;8.90;99.90;;;;;;4991191;28;20445;-72
2023/01/03 03:25:22;;;;;;;2.03;1.27;;;8.90;99.90;;;;;;4991766;28;20397;-73
2023/01/03 03:30:38;;;;;;;1.95;1.20;;;8.90;99.90;;;;;;4991885;28;20943;-72
2023/01/03 03:33:05;;;;;;;1.20;1.10;;;8.90;99.90;;;;;;4990646;28;20406;-73
2023/01/03 03:35:48;;;;;;;2.05;1.30;;;8.80;99.90;;;;;;4991785;28;20817;-72
2023/01/03 03:38:20;;;;;;;1.20;1.10;;;8.90;99.90;;;;;;4991217;28;20400;-72
2023/01/03 03:47:15;;;;;;;1.90;1.23;;;8.90;99.90;;;;;;4991187;28;20482;-72
2023/01/03 03:49:42;;;;;;;3.38;1.60;;;8.80;99.90;;;;;;4989344;28;20493;-73
2023/01/03 03:52:13;;;;;;;1.70;0.98;;;8.90;99.90;;;;;;4991133;28;20452;-72
2023/01/03 03:54:43;;;;;;;1.30;0.90;;;8.90;99.90;;;;;;4990456;28;20389;-73
2023/01/03 03:57:22;;;;;;;1.50;1.10;;;8.90;99.90;;;;;;4990015;28;20514;-73
2023/01/03 03:59:54;;;;;;;1.20;1.10;;;8.80;99.90;;;;;;4990358;28;20939;-73
2023/01/03 04:02:21;;;;;;;1.40;1.30;;;8.90;99.90;;;;;;4991195;28;20394;-73
2023/01/03 04:04:49;;;;;;;2.05;1.10;;;8.90;99.90;;;;;;4990236;28;20773;-73
2023/01/03 04:07:15;;;;;;;1.50;1.40;;;8.80;99.90;;;;;;4990973;28;20484;-73
2023/01/03 04:09:41;;;;;;;1.57;1.20;;;8.80;99.90;;;;;;4990875;28;20405;-72
2023/01/03 04:12:06;;;;;;;1.40;1.30;;;8.80;99.90;;;;;;4989643;28;20409;-72
2023/01/03 04:14:32;;;;;;;1.50;1.40;;;8.90;99.90;;;;;;4990082;28;20390;-72
2023/01/03 04:16:57;;;;;;;2.40;1.60;;;8.90;99.90;;;;;;4990148;28;20550;-73
2023/01/03 04:19:23;;;;;;;2.20;1.40;;;8.80;99.90;;;;;;4990616;28;20398;-73
2023/01/03 04:21:48;;;;;;;1.40;1.30;;;8.80;99.90;;;;;;4991016;28;20403;-72
2023/01/03 04:24:14;;;;;;;1.40;1.30;;;8.90;99.90;;;;;;4990521;28;20382;-73
2023/01/03 04:26:39;;;;;;;1.47;1.30;;;8.80;99.90;;;;;;4990857;28;20413;-73
2023/01/03 04:29:05;;;;;;;1.30;1.20;;;8.90;99.90;;;;;;4990874;28;20461;-72
2023/01/03 04:31:30;;;;;;;1.63;1.52;;;8.80;99.90;;;;;;4991077;28;20445;-72
2023/01/03 04:33:56;;;;;;;1.70;1.60;;;8.80;99.90;;;;;;4988729;28;20489;-72
2023/01/03 04:36:22;;;;;;;1.60;1.40;;;8.90;99.90;;;;;;4989952;28;20421;-72
2023/01/03 04:38:47;;;;;;;1.70;1.60;;;8.90;99.90;;;;;;4990948;28;20386;-72
2023/01/03 04:41:13;;;;;;;2.20;1.50;;;8.90;99.90;;;;;;4991144;28;20935;-72
2023/01/03 04:46:24;;;;;;;1.60;1.45;;;8.80;99.90;;;;;;4991090;28;20405;-73
2023/01/03 04:48:49;;;;;;;1.20;1.10;;;8.70;99.90;;;;;;4989818;28;20457;-72
2023/01/03 04:51:15;;;;;;;2.00;1.80;;;8.70;99.90;;;;;;4991613;28;20390;-72
2023/01/03 04:53:40;;;;;;;2.70;1.90;;;8.70;99.90;;;;;;4990143;28;20450;-73
2023/01/03 04:56:06;;;;;;;1.50;1.40;;;8.70;99.90;;;;;;4991084;28;20395;-73
2023/01/03 04:58:32;;;;;;;1.60;1.50;;;8.70;99.90;;;;;;4990960;28;20892;-73
2023/01/03 05:01:06;;;;;;;1.67;1.50;;;8.70;99.90;;;;;;4990860;28;20461;-73
2023/01/03 05:03:33;;;;;;;1.87;1.43;;;8.70;99.90;;;;;;4988767;28;20777;-73
2023/01/03 05:06:04;;;;;;;1.70;1.50;;;8.70;99.90;;;;;;4990743;28;20919;-73
2023/01/03 05:08:30;;;;;;;1.60;1.40;;;8.70;99.90;;;;;;4990985;28;20405;-72
2023/01/03 05:10:56;;;;;;;2.17;1.60;;;8.60;99.90;;;;;;4991155;28;20757;-73
2023/01/03 05:13:21;;;;;;;1.83;1.50;;;8.60;99.90;;;;;;4990121;28;20414;-73
2023/01/03 05:15:47;;;;;;;2.40;1.50;;;8.60;99.90;;;;;;4989347;28;20905;-73
2023/01/03 05:18:13;;;;;;;1.90;1.70;;;8.60;99.90;;;;;;4990728;28;20398;-72
2023/01/03 05:26:14;;;;;;;2.00;1.80;;;8.50;99.90;;;;;;4990837;28;20389;-72
2023/01/03 05:28:40;;;;;;;1.60;1.50;;;8.60;99.90;;;;;;4994280;28;20442;-72
2023/01/03 05:31:06;;;;;;;1.92;1.50;;;8.60;99.90;;;;;;4994269;28;20390;-73
2023/01/03 05:33:31;;;;;;;1.97;1.77;;;8.60;99.90;;;;;;4993825;28;20410;-72
2023/01/03 05:35:57;;;;;;;1.67;1.57;;;8.50;99.90;;;;;;4994427;28;20406;-72
2023/01/03 05:38:22;;;;;;;1.90;1.80;;;8.50;99.90;;;;;;4994042;28;20379;-72
2023/01/03 05:40:48;;;;;;;1.70;1.60;;;8.40;99.90;;;;;;4992690;28;20406;-72
2023/01/03 05:43:14;;;;;;;1.67;1.58;;;8.30;99.90;;;;;;4993280;28;20901;-72
2023/01/03 05:45:40;;;;;;;1.40;1.30;;;8.20;99.90;;;;;;4991677;28;20414;-72
2023/01/03 05:48:07;;;;;;;2.25;1.48;;;8.20;99.90;;;;;;4993256;28;20426;-72
2023/01/03 05:50:33;;;;;;;1.50;1.38;;;8.20;99.90;;;;;;4993752;28;20406;-72
2023/01/03 05:52:58;;;;;;;1.50;1.40;;;8.10;99.90;;;;;;4993039;28;20403;-72
2023/01/03 05:55:24;;;;;;;1.90;1.80;;;8.10;99.90;;;;;;4993946;28;20412;-73
2023/01/03 05:57:51;;;;;;;1.60;1.50;;;8.10;99.90;;;;;;4993510;28;20765;-72
2023/01/03 06:00:16;;;;;;;2.30;1.67;;;8.10;99.90;;;;;;4993650;28;20431;-73
2023/01/03 06:02:42;;;;;;;2.20;1.60;;;8.10;99.90;;;;;;4992969;28;20441;-72
2023/01/03 06:05:08;;;;;;;3.03;1.90;;;8.10;99.90;;;;;;4993399;28;20402;-72
2023/01/03 06:07:36;;;;;;;1.85;1.50;;;8.10;99.90;;;;;;4992082;28;20387;-73
2023/01/03 06:10:02;;;;;;;1.90;1.60;;;8.00;99.90;;;;;;4991960;28;20398;-72
2023/01/03 06:12:29;;;;;;;2.13;1.80;;;8.00;99.90;;;;;;4992647;28;20561;-71
2023/01/03 06:14:54;;;;;;;4.53;2.30;;;7.90;99.90;;;;;;4993108;28;20444;-72
2023/01/03 06:20:05;;;;;;;2.63;1.77;;;7.80;99.90;;;;;;4993521;28;20892;-72
2023/01/03 06:22:30;;;;;;;1.30;1.20;;;7.70;99.90;;;;;;4992618;28;20390;-71
2023/01/03 06:24:56;;;;;;;1.60;1.20;;;7.70;99.90;;;;;;4992970;28;20393;-72
2023/01/03 06:27:21;;;;;;;1.70;1.30;;;7.70;99.90;;;;;;4991859;28;20387;-72
2023/01/03 06:29:47;;;;;;;2.30;1.43;;;7.70;99.90;;;;;;4991758;28;20922;-72
2023/01/03 06:32:12;;;;;;;1.83;1.30;;;7.70;99.90;;;;;;4992722;28;20459;-72
2023/01/03 06:34:38;;;;;;;1.80;1.60;;;7.70;99.90;;;;;;4992319;28;20897;-72
2023/01/03 06:37:03;;;;;;;1.70;1.60;;;7.70;99.90;;;;;;4991700;28;20445;-72
2023/01/03 06:39:29;;;;;;;1.50;1.40;;;7.60;99.90;;;;;;4992051;28;20378;-72
2023/01/03 06:41:54;;;;;;;1.80;1.70;;;7.60;99.90;;;;;;4992607;28;20448;-72
2023/01/03 06:44:20;;;;;;;1.70;1.60;;;7.70;99.90;;;;;;4992098;28;20607;-72
2023/01/03 06:55:00;;;;;;;4.38;2.97;;;7.70;99.90;;;;;;4992455;28;20385;-72
2023/01/03 06:57:25;;;;;;;1.85;1.75;;;7.70;99.90;;;;;;4992374;28;20408;-72
2023/01/03 06:59:51;;;;;;;2.22;2.03;;;7.60;99.90;;;;;;4992382;28;20382;-72
2023/01/03 07:02:16;;;;;;;1.80;1.70;;;7.60;99.90;;;;;;4992961;28;20390;-72
2023/01/03 07:04:42;;;;;;;4.90;2.27;;;7.50;99.90;;;;;;4992033;28;20398;-72
2023/01/03 07:07:07;;;;;;;2.70;2.30;;;7.50;99.90;;;;;;4992408;28;20398;-73
2023/01/03 07:09:33;;;;;;;3.90;2.38;;;7.60;99.90;;;;;;4992236;28;20434;-72
2023/01/03 07:13:57;;;;;;;2.60;2.00;;;7.60;99.90;;;;;;4991925;28;20399;-72
2023/01/03 07:14:44;;;;;;;2.70;2.00;;;7.60;99.90;;;;;;4991423;28;20406;-72
2023/01/03 07:17:09;;;;;;;2.70;1.90;;;7.70;99.90;;;;;;4992224;28;20401;-72
2023/01/03 07:19:35;;;;;;;2.05;1.90;;;7.60;99.90;;;;;;4992126;28;20481;-73
2023/01/03 07:22:00;;;;;;;2.78;2.00;;;7.60;99.90;;;;;;4991844;28;20394;-72
2023/01/03 07:24:26;;;;;;;3.40;2.20;;;7.70;99.90;;;;;;4991339;28;20451;-72
2023/01/03 07:26:51;;;;;;;4.67;2.40;;;7.70;99.90;;;;;;4991817;28;20394;-73
2023/01/03 07:29:17;;;;;;;2.07;1.90;;;7.70;99.90;;;;;;4991636;28;20402;-72
2023/01/03 07:31:43;;;;;;;2.00;1.80;;;7.80;99.90;;;;;;4991999;28;20518;-72
2023/01/03 07:34:08;;;;;;;2.33;1.90;;;7.70;99.90;;;;;;4991157;28;20464;-72
2023/01/03 07:36:35;;;;;;;2.45;2.10;;;7.80;99.90;;;;;;4991778;28;20473;-72
2023/01/03 07:39:00;;;;;;;2.75;2.10;;;7.70;99.90;;;;;;4991835;28;20386;-73
2023/01/03 07:43:35;;;;;;;2.70;2.10;;;7.60;99.90;;;;;;4991360;28;20398;-72
2023/01/03 07:44:11;;;;;;;2.60;2.10;;;7.50;99.90;;;;;;4990874;28;20879;-72
2023/01/03 07:46:37;;;;;;;2.30;2.10;;;7.60;99.90;;;;;;4991379;28;20487;-72
2023/01/03 07:49:03;;;;;;;2.67;2.47;;;7.60;99.90;;;;;;4991574;28;20383;-72
2023/01/03 07:51:28;;;;;;;3.40;2.67;;;7.60;99.90;;;;;;4991545;28;20409;-72
2023/01/03 07:53:54;;;;;;;3.17;2.50;;;7.50;99.90;;;;;;4990721;28;20413;-72
2023/01/03 07:56:21;;;;;;;2.97;2.67;;;7.40;99.90;;;;;;4991262;28;20398;-72
2023/01/03 07:58:48;;;;;;;3.22;2.90;;;7.60;99.90;;;;;;4991284;28;20764;-72
2023/01/03 08:01:15;;;;;;;2.65;2.45;;;7.50;99.90;;;;;;4991488;28;20425;-73
2023/01/03 08:03:41;;;;;;;2.40;2.20;;;7.50;99.90;;;;;;4990801;28;20453;-73
2023/01/03 08:06:15;;;;;;;5.20;2.60;;;7.50;99.90;;;;;;4991203;28;20877;-73
2023/01/03 08:08:41;;;;;;;3.33;2.60;;;7.40;99.90;;;;;;4991162;28;20434;-73
2023/01/03 08:13:55;;;;;;;3.50;2.30;;;7.40;99.90;;;;;;4990959;28;20420;-72
2023/01/03 08:16:20;;;;;;;3.00;2.50;;;7.50;99.90;;;;;;4991041;28;20399;-73
2023/01/03 08:18:46;;;;;;;2.50;2.30;;;7.60;99.90;;;;;;4991063;28;20513;-73
2023/01/03 08:21:14;;;;;;;4.32;2.50;;;7.70;99.90;;;;;;4991204;28;20470;-73
2023/01/03 08:23:40;;;;;;;3.20;2.30;;;7.80;99.90;;;;;;4990198;28;20415;-73
2023/01/03 08:26:08;;;;;;;3.38;2.50;;;7.70;99.90;;;;;;4989762;28;20402;-73
2023/01/03 08:28:34;;;;;;;2.40;2.20;;;7.70;99.90;;;;;;4991189;28;20588;-73
2023/01/03 08:31:05;;;;;;;2.70;2.40;;;7.80;99.90;;;;;;4991577;28;20448;-73
2023/01/03 08:33:38;;;;;;;2.38;2.10;;;7.80;99.90;;;;;;4990117;28;20898;-73
2023/01/03 08:36:06;;;;;;;2.90;2.60;;;7.90;99.90;;;;;;4991267;28;20752;-73
2023/01/03 08:38:35;;;;;;;3.20;2.50;;;7.90;99.90;;;;;;4991032;28;20387;-73
2023/01/03 08:41:02;;;;;;;2.80;2.50;;;7.90;99.90;;;;;;4990810;28;20398;-72
2023/01/03 08:43:32;;;;;;;3.00;2.70;;;7.90;99.90;;;;;;4989036;28;20395;-73
2023/01/03 08:45:57;;;;;;;3.00;2.80;;;8.00;99.90;;;;;;4991105;28;20394;-72
2023/01/03 08:48:24;;;;;;;3.30;3.00;;;8.10;99.90;;;;;;4990947;28;20398;-72
2023/01/03 08:50:49;;;;;;;3.35;3.05;;;8.10;99.90;;;;;;4990919;28;20411;-72
2023/01/03 08:53:15;;;;;;;2.90;2.70;;;8.10;99.90;;;;;;4990012;28;20754;-72
2023/01/03 08:55:41;;;;;;;3.40;3.10;;;8.10;99.90;;;;;;4991213;28;20517;-72
2023/01/03 08:58:08;;;;;;;2.80;2.60;;;8.10;99.90;;;;;;4990937;28;20383;-72
2023/01/03 09:00:35;;;;;;;2.88;2.67;;;8.10;99.90;;;;;;4990839;28;20386;-72
2023/01/03 09:03:00;;;;;;;3.10;2.80;;;8.10;99.90;;;;;;4992636;28;20827;-72
2023/01/03 09:05:28;;;;;;;3.80;2.70;;;8.10;99.90;;;;;;4994894;28;20485;-72
2023/01/03 09:07:54;;;;;;;3.33;3.00;;;8.30;99.90;;;;;;4994877;28;20444;-73
2023/01/03 09:10:20;;;;;;;3.58;3.00;;;8.30;99.90;;;;;;4994819;28;20386;-72
2023/01/03 09:12:45;;;;;;;3.60;3.28;;;8.40;99.90;;;;;;4993587;28;20784;-72
2023/01/03 09:15:11;;;;;;;3.63;3.00;;;8.50;99.90;;;;;;4994579;28;20418;-72
2023/01/03 09:17:36;;;;;;;5.27;3.07;;;8.50;99.90;;;;;;5025849;28;20379;-72
2023/01/03 09:20:02;;;;;;;2.90;2.70;;;8.60;99.90;;;;;;4994526;28;20394;-72
2023/01/03 09:22:28;;;;;;;3.45;3.15;;;8.70;99.90;;;;;;4993961;28;20390;-72
2023/01/03 09:24:54;;;;;;;4.13;3.60;;;8.70;99.90;;;;;;4992208;28;20893;-72
2023/01/03 09:27:20;;;;;;;4.30;3.60;;;8.80;99.90;;;;;;4994354;28;20820;-72
2023/01/03 09:29:47;;;;;;;3.03;2.83;;;8.80;99.90;;;;;;4994253;28;20477;-73
2023/01/03 09:32:13;;;;;;;3.50;2.90;;;8.80;99.90;;;;;;4994031;28;20764;-72
2023/01/03 09:34:39;;;;;;;3.85;3.20;;;8.70;99.90;;;;;;4992489;28;20790;-73
2023/01/03 09:37:05;;;;;;;5.13;3.20;;;8.70;99.90;;;;;;4994183;28;20488;-71
2023/01/03 09:39:30;;;;;;;3.17;2.70;;;8.70;99.90;;;;;;4993954;28;20387;-72
2023/01/03 09:44:43;;;;;;;3.63;3.10;;;8.80;99.90;;;;;;4993034;28;20409;-72
2023/01/03 09:47:18;;;;;;;3.50;3.20;;;8.90;99.90;;;;;;4993860;28;20477;-72
2023/01/03 09:49:44;;;;;;;3.53;3.22;;;8.90;99.90;;;;;;4993716;28;20485;-72
2023/01/03 10:04:33;;;;;;;3.90;2.80;;;9.10;99.90;;;;;;4992845;28;20836;-73
2023/01/03 10:07:44;;;;;;;2.20;2.00;;;9.20;99.90;;;;;;4993422;28;20395;-72
2023/01/03 10:10:36;;;;;;;3.00;2.55;;;9.20;99.90;;;;;;4999157;28;20785;-72
2023/01/03 10:13:24;;;;;;;2.20;2.00;;;9.30;99.90;;;;;;4991756;28;20413;-73
2023/01/03 10:15:59;;;;;;;2.50;2.30;;;9.20;99.90;;;;;;4993402;28;20378;-72
2023/01/03 10:18:46;;;;;;;2.90;2.60;;;9.10;99.90;;;;;;4991913;28;20437;-75
2023/01/03 10:21:12;;;;;;;3.75;3.33;;;9.10;99.90;;;;;;4993432;28;20385;-72
2023/01/03 10:23:37;;;;;;;3.15;2.85;;;9.10;99.90;;;;;;4992560;28;20859;-72
2023/01/03 10:26:10;;;;;;;3.40;3.10;;;8.90;99.90;;;;;;4992832;28;20426;-73
2023/01/03 10:28:40;;;;;;;5.20;3.45;;;9.10;99.90;;;;;;4992903;28;20405;-72
2023/01/03 10:31:17;;;;;;;3.90;3.60;;;9.20;99.90;;;;;;4993516;28;20398;-73
2023/01/03 10:33:48;;;;;;;3.80;3.50;;;9.20;99.90;;;;;;4992002;28;20861;-72
2023/01/03 10:36:15;;;;;;;4.30;3.60;;;9.40;99.90;;;;;;4993012;28;20386;-72
2023/01/03 10:38:43;;;;;;;4.57;4.03;;;9.50;99.90;;;;;;4992720;28;20390;-72
2023/01/03 10:41:37;;;;;;;4.15;3.80;;;9.50;99.90;;;;;;4991617;28;20893;-72
2023/01/03 10:44:03;;;;;;;4.20;3.60;;;9.60;99.90;;;;;;4992045;28;20422;-73
2023/01/03 10:46:29;;;;;;;3.78;3.40;;;9.60;99.90;;;;;;4992803;28;20403;-73
2023/01/03 10:49:10;;;;;;;4.20;3.80;;;9.70;99.90;;;;;;4992300;28;20777;-73
2023/01/03 10:51:54;;;;;;;4.63;4.18;;;9.70;99.90;;;;;;4992655;28;20468;-73
2023/01/03 10:54:23;;;;;;;4.15;3.85;;;9.70;99.90;;;;;;4990634;28;20406;-73
2023/01/03 10:56:50;;;;;;;4.55;4.20;;;9.70;99.90;;;;;;4991515;28;20485;-73
2023/01/03 10:59:15;;;;;;;4.45;4.05;;;9.80;99.90;;;;;;4992354;28;20390;-73
2023/01/03 11:02:00;;;;;;;4.25;3.65;;;9.90;99.90;;;;;;4992567;28;20793;-73
2023/01/03 11:04:30;;;;;;;3.70;3.40;;;10.00;99.90;;;;;;4991677;28;21009;-72
2023/01/03 11:07:12;;;;;;;3.97;3.67;;;9.90;99.90;;;;;;4992070;28;20441;-73
2023/01/03 11:09:57;;;;;;;3.70;3.30;;;10.00;99.90;;;;;;4990619;28;20461;-73
2023/01/03 11:12:28;;;;;;;4.60;4.20;;;9.90;99.90;;;;;;4992163;28;20407;-73
2023/01/03 11:14:56;;;;;;;3.70;3.40;;;9.80;99.90;;;;;;4992095;28;20389;-74
2023/01/03 11:17:23;;;;;;;4.32;3.90;;;9.90;99.90;;;;;;4992473;28;20884;-73
2023/01/03 11:19:51;;;;;;;4.60;4.20;;;9.90;99.90;;;;;;4991578;28;20445;-73
2023/01/03 11:22:23;;;;;;;4.70;4.30;;;9.60;99.90;;;;;;4990605;28;20948;-73
2023/01/03 11:24:58;;;;;;;4.63;4.22;;;9.60;99.90;;;;;;4991382;28;20387;-73
2023/01/03 11:27:35;;;;;;;4.40;4.00;;;9.70;99.90;;;;;;4992179;28;20436;-73
2023/01/03 11:30:25;;;;;;;5.25;4.10;;;9.80;99.90;;;;;;4991601;28;20401;-74
2023/01/03 11:33:08;;;;;;;4.03;3.72;;;10.10;99.90;;;;;;4991147;28;20509;-73
2023/01/03 11:35:49;;;;;;;4.00;3.60;;;10.00;99.90;;;;;;4991766;28;20469;-73
2023/01/03 11:38:34;;;;;;;3.80;3.47;;;10.80;99.90;;;;;;4991992;28;20379;-74
2023/01/03 11:41:21;;;;;;;3.88;3.38;;;10.50;99.90;;;;;;4991718;28;20383;-72
2023/01/03 11:43:58;;;;;;;3.72;3.42;;;11.10;99.90;;;;;;4989715;28;20390;-72
2023/01/03 11:46:56;;;;;;;4.70;3.30;;;11.90;1.00;;;;;;4991518;28;20407;-72
2023/01/03 11:50:08;;;;;;;3.05;2.85;;;11.70;1.00;;;;;;4991443;28;20816;-72
2023/01/03 11:52:42;;;;;;;3.15;2.70;;;12.00;1.00;;;;;;4990828;28;20386;-72
2023/01/03 11:55:40;;;;;;;3.60;2.70;;;11.30;1.00;;;;;;4991411;28;20394;-72
2023/01/03 11:58:38;;;;;;;4.03;3.00;;;11.00;18.90;;;;;;4991547;28;20480;-73
2023/01/03 12:01:28;;;;;;;3.65;3.35;;;11.40;78.60;;;;;;4991467;28;20390;-73
2023/01/03 12:04:12;;;;;;;3.42;3.17;;;12.10;1.00;;;;;;4990755;28;20485;-73
2023/01/03 12:06:47;;;;;;;3.22;2.92;;;12.30;1.00;;;;;;4987664;28;20838;-73
2023/01/03 12:09:13;;;;;;;3.60;3.30;;;12.40;1.00;;;;;;4991283;28;20386;-72
2023/01/03 12:12:01;;;;;;;3.70;3.40;;;12.80;1.00;;;;;;4991371;28;20409;-73
2023/01/03 12:14:37;;;;;;;4.38;2.97;;;12.90;1.00;;;;;;4990429;28;20406;-72
2023/01/03 12:17:10;;;;;;;3.13;2.83;;;12.50;99.90;;;;;;4991244;28;20402;-73
2023/01/03 12:19:42;;;;;;;2.92;2.72;;;12.10;1.00;;;;;;4991061;28;20505;-72
2023/01/03 12:22:32;;;;;;;2.92;2.60;;;12.70;1.00;;;;;;4991373;28;20393;-73
2023/01/03 12:25:38;;;;;;;2.78;2.45;;;12.90;1.00;;;;;;4990842;28;20468;-73
2023/01/03 12:28:15;;;;;;;2.70;2.50;;;12.20;1.00;;;;;;4988584;28;20486;-73
2023/01/03 12:30:55;;;;;;;2.80;2.60;;;12.80;1.00;;;;;;4991334;28;20394;-73
2023/01/03 12:33:41;;;;;;;3.00;2.80;;;12.90;99.90;;;;;;4990392;28;20414;-73
2023/01/03 12:36:20;;;;;;;3.22;3.00;;;12.90;99.90;;;;;;4991585;28;20398;-73
2023/01/03 12:39:15;;;;;;;3.60;3.30;;;12.30;1.00;;;;;;4996075;28;20389;-73
2023/01/03 12:42:08;;;;;;;3.90;3.58;;;11.30;19.50;;;;;;4992836;28;20410;-73
2023/01/03 12:44:40;;;;;;;4.60;3.35;;;11.30;48.30;;;;;;4994530;28;20452;-73
2023/01/03 12:47:24;;;;;;;3.42;3.10;;;11.10;99.90;;;;;;4993614;28;20420;-73
2023/01/03 12:49:54;;;;;;;2.80;2.60;;;11.30;69.00;;;;;;4994844;28;20438;-72
2023/01/03 12:52:24;;;;;;;4.57;3.30;;;10.90;64.30;;;;;;4994979;28;20474;-73
2023/01/03 12:54:53;;;;;;;4.00;3.60;;;11.10;99.90;;;;;;4994347;28;20398;-73
2023/01/03 12:57:37;;;;;;;3.70;3.40;;;11.00;99.90;;;;;;4995034;28;20387;-72
2023/01/03 13:00:22;;;;;;;4.40;4.00;;;10.90;99.90;;;;;;4994909;28;20378;-73
2023/01/03 13:02:57;;;;;;;4.40;3.80;;;10.60;99.90;;;;;;4994184;28;20477;-73
2023/01/03 13:05:41;;;;;;;3.90;3.50;;;10.70;99.90;;;;;;4994675;28;20401;-73
2023/01/03 13:08:12;;;;;;;3.50;3.20;;;10.80;99.90;;;;;;4994735;28;20386;-72
2023/01/03 13:10:42;;;;;;;4.22;3.80;;;10.60;99.90;;;;;;4994523;28;21029;-73
2023/01/03 13:13:15;;;;;;;4.33;3.90;;;10.60;99.90;;;;;;4992262;28;20485;-73
2023/01/03 13:15:40;;;;;;;4.20;3.83;;;10.50;99.90;;;;;;4994594;28;20402;-73
2023/01/03 13:18:17;;;;;;;6.70;4.37;;;10.50;99.90;;;;;;5016757;22;20482;-72
2023/01/03 13:20:46;;;;;;;3.80;3.50;;;10.50;99.90;;;;;;4995211;28;20928;-73
2023/01/03 13:23:40;;;;;;;4.40;4.00;;;10.50;99.90;;;;;;4999016;28;20403;-73
2023/01/03 13:26:19;;;;;;;3.50;3.20;;;10.60;99.90;;;;;;5014040;28;20385;-73
2023/01/03 13:28:45;;;;;;;4.22;3.88;;;10.50;99.90;;;;;;5006379;28;20465;-74
2023/01/03 13:31:16;;;;;;;4.07;3.50;;;10.60;99.90;;;;;;4986676;28;20479;-72
2023/01/03 13:33:54;;;;;;;4.18;3.25;;;10.60;99.90;;;;;;4981000;28;20418;-74
2023/01/03 13:36:22;;;;;;;3.13;2.83;;;10.70;99.90;;;;;;4993027;28;20785;-74
2023/01/03 13:38:48;;;;;;;3.22;2.92;;;10.90;99.90;;;;;;4984779;28;20439;-73
2023/01/03 13:41:35;;;;;;;3.33;2.90;;;10.80;45.70;;;;;;4993446;28;20390;-74
2023/01/03 13:44:22;;;;;;;3.55;3.25;;;10.90;60.20;;;;;;4993340;28;20440;-73
2023/01/03 13:46:48;;;;;;;3.78;3.25;;;10.90;65.60;;;;;;4993236;28;20437;-74
2023/01/03 13:49:27;;;;;;;3.20;2.90;;;10.90;99.90;;;;;;4974123;28;20431;-73
2023/01/03 13:51:55;;;;;;;4.82;3.90;;;10.80;99.90;;;;;;4974351;28;20515;-74
2023/01/03 13:54:21;;;;;;;2.70;2.50;;;10.90;99.90;;;;;;4973800;28;20854;-74
2023/01/03 13:56:46;;;;;;;3.57;3.27;;;10.60;99.90;;;;;;4974466;28;20392;-74
2023/01/03 13:59:18;;;;;;;3.05;2.75;;;10.70;99.90;;;;;;4993153;28;20477;-74
2023/01/03 14:01:56;;;;;;;3.60;3.30;;;10.80;99.90;;;;;;4985389;28;20479;-74
2023/01/03 14:04:40;;;;;;;3.35;3.05;;;10.90;85.50;;;;;;4973685;28;20814;-73
2023/01/03 14:07:27;;;;;;;3.20;2.80;;;10.90;39.00;;;;;;4972917;28;20392;-74
2023/01/03 14:10:22;;;;;;;3.10;2.50;;;11.00;54.30;;;;;;4974030;28;20471;-73
2023/01/03 14:13:20;;;;;;;2.65;2.30;;;10.90;10.80;;;;;;4988542;28;20462;-72
2023/01/03 14:15:47;;;;;;;3.80;2.60;;;10.90;1.00;;;;;;4979312;28;20495;-73
2023/01/03 14:18:13;;;;;;;2.45;2.20;;;10.90;1.00;;;;;;4973623;28;20895;-74
2023/01/03 14:20:44;;;;;;;2.30;2.10;;;10.80;4.60;;;;;;4973670;28;20467;-74
2023/01/03 14:23:13;;;;;;;2.87;2.37;;;10.70;1.00;;;;;;4973093;28;20395;-73